createdAt,value
2023-05-11T04:53:49.124Z,6.10
2023-05-11T04:56:15.620Z,6.76
2023-05-11T04:58:42.138Z,7.34
2023-05-11T05:01:08.688Z,8.83
2023-05-11T05:03:35.194Z,8.39
2023-05-11T05:06:01.598Z,7.29
2023-05-11T05:08:28.083Z,7.09
2023-05-11T05:10:54.556Z,7.58
2023-05-11T05:13:21.049Z,7.21
2023-05-11T05:15:47.508Z,7.94
2023-05-11T05:18:13.961Z,14.18
2023-05-11T05:20:40.476Z,17.03
2023-05-11T05:23:06.966Z,16.75
2023-05-11T05:25:33.496Z,16.89
2023-05-11T05:28:00.022Z,15.89
2023-05-11T05:30:26.545Z,16.04
2023-05-11T05:32:53.091Z,15.34
2023-05-11T05:35:19.594Z,13.07
2023-05-11T05:37:46.065Z,12.81
2023-05-11T05:40:12.550Z,12.60
2023-05-11T05:42:39.031Z,12.26
2023-05-11T05:45:05.492Z,15.17
2023-05-11T05:47:31.999Z,15.16
2023-05-11T05:49:58.479Z,14.17
2023-05-11T05:52:24.967Z,12.35
2023-05-11T05:54:51.439Z,13.65
2023-05-11T05:57:17.907Z,12.79
2023-05-11T05:59:44.320Z,11.55
2023-05-11T06:02:10.793Z,11.83
2023-05-11T06:04:37.319Z,13.29
2023-05-11T06:07:03.850Z,11.99
2023-05-11T06:09:30.325Z,10.77
2023-05-11T06:11:56.804Z,12.06
2023-05-11T06:14:23.300Z,11.21
2023-05-11T06:16:49.832Z,10.78
2023-05-11T06:19:16.321Z,13.25
2023-05-11T06:21:42.828Z,11.05
2023-05-11T06:24:09.232Z,11.29
2023-05-11T06:26:35.698Z,11.78
2023-05-11T06:29:02.184Z,10.79
2023-05-11T06:31:28.775Z,12.66
2023-05-11T06:33:55.278Z,10.92
2023-05-11T06:36:21.735Z,11.01
2023-05-11T06:38:48.212Z,12.12
2023-05-11T06:41:14.820Z,10.38
2023-05-11T06:43:41.356Z,10.60
2023-05-11T06:46:07.903Z,10.20
2023-05-11T06:48:34.414Z,11.31
2023-05-11T06:51:00.931Z,10.33
2023-05-11T06:53:27.437Z,12.10
2023-05-11T06:55:54.051Z,11.30
2023-05-11T06:58:20.704Z,11.51
2023-05-11T07:00:47.373Z,10.79
2023-05-11T07:54:11.384Z,29.92
2023-05-11T07:56:37.896Z,30.47
2023-05-11T07:59:04.445Z,27.57
2023-05-11T08:01:30.966Z,28.76
2023-05-11T08:03:57.437Z,27.45
2023-05-11T08:06:27.104Z,29.08
2023-05-11T08:08:53.576Z,30.69
2023-05-11T08:11:20.086Z,28.28
2023-05-11T08:13:46.609Z,23.39
2023-05-11T08:16:13.138Z,24.92
2023-05-11T08:18:39.779Z,26.23
2023-05-11T08:21:06.402Z,24.26
2023-05-11T08:23:32.840Z,24.37
2023-05-11T08:25:59.253Z,23.24
2023-05-11T08:28:25.759Z,23.36
2023-05-11T08:30:52.183Z,23.18
2023-05-11T08:35:49.554Z,21.77
2023-05-11T08:38:16.012Z,23.19
2023-05-11T08:40:42.521Z,21.54
2023-05-11T08:43:09.049Z,22.64
2023-05-11T08:45:35.508Z,20.76
2023-05-11T08:48:02.131Z,20.61
2023-05-11T08:50:28.686Z,20.69
2023-05-11T08:52:55.267Z,19.10
2023-05-11T08:55:21.782Z,22.26
2023-05-11T09:08:44.453Z,19.16
2023-05-11T09:11:10.899Z,19.09
2023-05-11T09:13:37.344Z,28.19
2023-05-11T09:16:03.875Z,19.74
2023-05-11T09:18:30.506Z,20.64
2023-05-11T09:20:57.025Z,18.40
2023-05-11T09:23:23.556Z,19.51
2023-05-11T09:25:50.090Z,19.58
2023-05-11T09:28:16.591Z,16.32
2023-05-11T09:30:43.259Z,18.62
2023-05-11T09:33:09.833Z,17.19
2023-05-11T09:35:36.335Z,18.84
2023-05-11T09:38:02.798Z,17.82
2023-05-11T10:00:22.921Z,25.92
2023-05-11T15:27:11.886Z,9.92
2023-05-11T15:29:38.457Z,9.16
2023-05-11T15:32:05.009Z,8.29
2023-05-11T15:34:31.632Z,8.67
2023-05-11T15:36:58.091Z,8.47
2023-05-11T15:39:24.480Z,10.28
2023-05-11T15:41:50.955Z,8.88
2023-05-11T15:44:32.737Z,7.60
2023-05-11T15:46:59.189Z,9.14
2023-05-11T15:49:25.688Z,7.69
2023-05-11T15:51:52.106Z,7.93
2023-05-11T15:54:18.537Z,9.72
2023-05-11T15:56:45.065Z,8.48
2023-05-11T15:59:11.846Z,8.68
2023-05-11T16:01:38.313Z,7.35
2023-05-11T16:04:04.825Z,7.78
2023-05-11T16:06:31.355Z,8.39
2023-05-11T16:08:57.827Z,7.62
2023-05-11T16:11:24.245Z,8.59
2023-05-11T16:13:50.676Z,8.76
2023-05-11T16:16:17.102Z,8.94
2023-05-11T16:18:43.675Z,8.79
2023-05-11T16:21:10.267Z,10.77
2023-05-11T16:23:36.721Z,9.62
2023-05-11T16:26:03.224Z,9.85
2023-05-11T16:28:29.729Z,9.00
2023-05-11T16:30:59.082Z,9.11
2023-05-11T16:33:25.819Z,9.22
2023-05-11T16:35:52.250Z,10.25
2023-05-11T16:38:18.683Z,9.00
2023-05-11T16:40:45.129Z,8.19
2023-05-11T16:43:11.569Z,9.72
2023-05-11T16:45:38.059Z,9.06
2023-05-11T16:48:04.598Z,9.20
2023-05-11T16:50:31.121Z,9.80
2023-05-11T16:52:57.530Z,8.35
2023-05-11T16:55:24.050Z,8.43
2023-05-11T16:57:50.475Z,8.63
2023-05-11T17:00:17.126Z,8.06
2023-05-11T17:02:43.921Z,9.86
2023-05-11T17:05:10.382Z,11.31
2023-05-11T17:07:36.899Z,14.96
2023-05-11T17:10:03.400Z,13.40
2023-05-11T17:12:29.982Z,14.65
2023-05-11T17:14:56.822Z,17.65
2023-05-11T17:17:23.238Z,16.76
2023-05-11T17:19:49.723Z,15.55
2023-05-11T17:22:16.195Z,14.44
2023-05-11T17:24:42.705Z,12.38
2023-05-11T17:27:09.229Z,13.86
2023-05-11T17:29:35.734Z,15.92
2023-05-11T17:32:02.341Z,14.57
2023-05-11T17:34:29.059Z,15.54
2023-05-11T17:36:55.614Z,16.25
2023-05-11T17:39:22.130Z,16.48
2023-05-11T17:41:48.612Z,16.29
2023-05-11T17:44:15.066Z,16.68
2023-05-11T17:46:41.457Z,16.97
2023-05-11T17:49:07.908Z,17.41
2023-05-11T17:51:34.428Z,16.29
2023-05-11T17:54:01.072Z,16.28
2023-05-11T17:56:27.593Z,15.54
2023-05-11T17:58:54.105Z,17.31
2023-05-11T18:01:20.577Z,16.24
2023-05-11T18:03:47.161Z,18.06
2023-05-11T18:06:13.659Z,15.47
2023-05-11T18:08:40.070Z,16.37
2023-05-11T18:11:06.574Z,16.36
2023-05-11T18:13:32.995Z,14.87
2023-05-11T18:15:59.445Z,16.32
2023-05-11T18:18:27.718Z,15.96
2023-05-11T18:20:54.277Z,16.20
2023-05-11T18:23:20.695Z,15.72
2023-05-11T18:25:47.139Z,15.25
2023-05-11T18:28:16.706Z,15.36
2023-05-11T18:30:43.199Z,16.04
2023-05-11T18:33:09.654Z,15.35
2023-05-11T18:35:36.176Z,14.34
2023-05-11T18:38:02.710Z,14.99
2023-05-11T18:40:29.103Z,15.00
2023-05-11T18:42:55.575Z,14.74
2023-05-11T18:45:22.080Z,15.96
2023-05-11T18:47:48.623Z,14.94
2023-05-11T18:50:15.155Z,15.13
2023-05-11T18:52:41.654Z,14.67
2023-05-11T18:55:08.181Z,13.88
2023-05-11T18:57:34.779Z,14.37
2023-05-11T19:00:01.456Z,15.45
2023-05-11T19:02:28.129Z,15.35
2023-05-11T19:04:54.812Z,14.82
2023-05-11T19:07:21.352Z,16.09
2023-05-11T19:09:47.874Z,14.62
2023-05-11T19:12:14.320Z,14.51
2023-05-11T19:14:40.761Z,15.08
2023-05-11T19:17:07.316Z,14.47
2023-05-11T19:19:33.794Z,14.16
2023-05-11T19:22:00.249Z,14.90
2023-05-11T19:24:29.549Z,15.92
2023-05-11T19:27:06.538Z,14.49
2023-05-11T19:29:34.392Z,14.22
2023-05-11T19:32:00.892Z,13.07
2023-05-11T19:34:27.421Z,15.24
2023-05-11T19:36:53.950Z,13.29
2023-05-11T19:39:20.419Z,13.48
2023-05-11T19:41:46.935Z,13.54
2023-05-11T19:44:13.423Z,13.95
2023-05-11T19:46:40.019Z,13.21
2023-05-11T19:49:06.522Z,13.27
2023-05-11T19:51:32.936Z,13.47
2023-05-11T19:53:59.374Z,13.24
2023-05-11T19:56:25.901Z,11.91
2023-05-11T19:58:52.429Z,12.71
2023-05-11T20:01:19.940Z,13.57
2023-05-11T20:03:46.667Z,13.57
2023-05-11T20:06:13.282Z,14.59
2023-05-11T20:08:39.793Z,13.00
